createdAt,value
2019-02-25T00:02:29.194Z,16.37
2019-02-25T00:07:30.993Z,17.63
2019-02-25T00:12:32.773Z,17.63
2019-02-25T00:17:34.575Z,17.40
2019-02-25T00:22:36.328Z,16.83
2019-02-25T00:27:38.109Z,16.93
2019-02-25T00:32:39.886Z,15.70
2019-02-25T00:37:41.658Z,16.80
2019-02-25T00:42:43.424Z,16.13
2019-02-25T00:47:45.214Z,17.40
2019-02-25T00:52:46.999Z,17.70
2019-02-25T00:57:48.772Z,15.43
2019-02-25T01:02:50.478Z,17.57
2019-02-25T01:07:52.204Z,17.20
2019-02-25T01:12:53.882Z,17.20
2019-02-25T01:17:55.662Z,16.90
2019-02-25T01:22:57.443Z,22.07
2019-02-25T01:27:59.208Z,16.13
2019-02-25T01:33:00.887Z,15.23
2019-02-25T01:38:02.662Z,15.13
2019-02-25T01:43:04.336Z,14.97
2019-02-25T01:48:06.116Z,15.87
2019-02-25T01:53:07.787Z,14.93
2019-02-25T01:58:09.583Z,14.87
2019-02-25T02:03:11.264Z,14.87
2019-02-25T02:08:13.008Z,14.87
2019-02-25T02:13:14.794Z,14.20
2019-02-25T02:18:16.574Z,15.60
2019-02-25T02:23:18.250Z,13.93
2019-02-25T02:28:20.028Z,13.87
2019-02-25T02:33:24.408Z,12.97
2019-02-25T02:38:26.126Z,13.33
2019-02-25T02:43:27.804Z,13.00
2019-02-25T02:48:31.651Z,12.63
2019-02-25T02:53:33.330Z,13.90
2019-02-25T02:58:35.100Z,12.07
2019-02-25T03:03:36.872Z,13.80
2019-02-25T03:08:38.565Z,13.93
2019-02-25T03:13:40.248Z,13.03
2019-02-25T03:18:41.984Z,13.57
2019-02-25T03:23:43.768Z,12.80
2019-02-25T03:28:45.531Z,12.57
2019-02-25T03:33:47.317Z,11.77
2019-02-25T03:38:49.096Z,13.03
2019-02-25T03:43:50.773Z,12.50
2019-02-25T03:48:52.541Z,13.10
2019-02-25T03:53:54.322Z,13.30
2019-02-25T03:58:55.993Z,12.67
2019-02-25T04:03:57.778Z,12.77
2019-02-25T04:08:59.488Z,12.63
2019-02-25T04:14:01.217Z,12.13
2019-02-25T04:19:02.898Z,12.73
2019-02-25T04:24:04.675Z,12.93
2019-02-25T04:29:06.450Z,12.53
2019-02-25T04:34:08.230Z,11.63
2019-02-25T04:39:10.011Z,11.23
2019-02-25T04:44:11.777Z,12.70
2019-02-25T04:49:13.467Z,11.73
2019-02-25T04:54:15.237Z,12.17
2019-02-25T04:59:17.013Z,11.80
2019-02-25T05:04:18.785Z,12.30
2019-02-25T05:09:20.482Z,11.77
2019-02-25T05:14:22.233Z,12.30
2019-02-25T05:19:23.918Z,11.53
2019-02-25T05:24:25.717Z,11.87
2019-02-25T05:29:27.470Z,12.80
2019-02-25T05:34:29.247Z,13.23
2019-02-25T05:39:30.935Z,13.47
2019-02-25T05:44:32.690Z,12.37
2019-02-25T05:49:34.490Z,12.73
2019-02-25T05:54:36.177Z,12.27
2019-02-25T05:59:37.910Z,10.80
2019-02-25T06:04:39.709Z,11.93
2019-02-25T06:09:41.412Z,12.57
2019-02-25T06:14:43.113Z,12.37
2019-02-25T06:19:44.809Z,12.63
2019-02-25T06:24:46.592Z,13.03
2019-02-25T06:29:48.370Z,13.90
2019-02-25T06:34:50.046Z,13.37
2019-02-25T06:39:51.818Z,13.37
2019-02-25T06:44:53.502Z,13.67
2019-02-25T06:49:55.265Z,13.97
2019-02-25T06:54:57.059Z,13.33
2019-02-25T06:59:58.830Z,14.27
2019-02-25T07:05:18.975Z,13.07
2019-02-25T07:10:39.056Z,14.43
2019-02-25T07:15:55.467Z,14.60
2019-02-25T07:21:21.577Z,15.27
2019-02-25T07:26:36.978Z,14.77
2019-02-25T07:31:51.340Z,14.43
2019-02-25T07:37:14.119Z,14.93
2019-02-25T07:42:48.356Z,14.17
2019-02-25T07:47:57.808Z,15.20
2019-02-25T07:53:17.958Z,14.70
2019-02-25T07:58:25.016Z,15.00
2019-02-25T08:08:00.308Z,14.57
2019-02-25T08:13:13.980Z,13.33
2019-02-25T08:18:50.473Z,16.13
2019-02-25T08:24:30.833Z,14.50
2019-02-25T08:30:01.211Z,15.03
2019-02-25T08:35:30.613Z,15.37
2019-02-25T08:40:43.089Z,15.53
2019-02-25T08:46:06.725Z,15.63
2019-02-25T08:51:09.861Z,15.13
2019-02-25T08:56:11.509Z,15.60
2019-02-25T09:01:15.319Z,16.00
2019-02-25T09:06:16.809Z,16.13
2019-02-25T09:11:18.604Z,17.60
2019-02-25T09:16:20.312Z,16.17
2019-02-25T09:21:22.063Z,15.87
2019-02-25T09:26:23.749Z,16.80
2019-02-25T09:31:25.446Z,17.67
2019-02-25T09:36:27.240Z,18.40
2019-02-25T09:41:30.216Z,16.93
2019-02-25T09:46:32.158Z,16.60
2019-02-25T09:51:33.949Z,18.90
2019-02-25T09:56:37.315Z,16.73
2019-02-25T10:01:39.184Z,18.13
2019-02-25T10:06:40.812Z,18.80
2019-02-25T10:11:42.589Z,17.80
2019-02-25T10:16:44.360Z,17.60
2019-02-25T10:21:46.141Z,18.00
2019-02-25T10:26:47.820Z,18.23
2019-02-25T10:31:49.592Z,19.03
2019-02-25T10:36:52.380Z,20.40
2019-02-25T10:41:55.929Z,19.90
2019-02-25T10:46:57.702Z,19.83
2019-02-25T10:51:59.354Z,20.30
2019-02-25T10:57:05.354Z,20.70
2019-02-25T11:02:08.604Z,20.13
2019-02-25T11:07:10.652Z,20.73
2019-02-25T11:12:12.415Z,20.20
2019-02-25T11:17:15.912Z,20.23
2019-02-25T11:22:17.701Z,22.97
2019-02-25T11:27:19.467Z,22.20
2019-02-25T11:32:21.535Z,21.77
2019-02-25T11:37:25.433Z,22.17
2019-02-25T11:42:28.190Z,23.00
2019-02-25T11:47:29.966Z,23.10
2019-02-25T11:52:31.655Z,22.50
2019-02-25T11:57:33.417Z,22.73
2019-02-25T12:02:35.190Z,25.10
2019-02-25T12:07:36.972Z,25.93
2019-02-25T12:12:38.782Z,24.77
2019-02-25T12:17:40.520Z,24.60
2019-02-25T12:22:42.318Z,24.47
2019-02-25T12:27:44.065Z,24.83
2019-02-25T12:32:45.751Z,25.03
2019-02-25T12:37:47.517Z,24.37
2019-02-25T12:42:49.302Z,23.67
2019-02-25T12:47:51.077Z,25.33
2019-02-25T12:52:52.849Z,25.70
2019-02-25T12:57:54.558Z,25.70
2019-02-25T13:02:56.297Z,24.80
2019-02-25T13:07:57.982Z,24.17
2019-02-25T13:12:59.756Z,25.03
2019-02-25T13:18:01.441Z,24.07
2019-02-25T13:23:03.504Z,24.63
2019-02-25T13:28:05.257Z,23.67
2019-02-25T13:33:06.958Z,22.47
2019-02-25T13:38:08.644Z,23.73
2019-02-25T13:43:10.408Z,24.60
2019-02-25T13:48:12.093Z,25.70
2019-02-25T13:53:13.898Z,24.40
2019-02-25T13:58:15.799Z,24.43
2019-02-25T14:03:17.520Z,25.03
2019-02-25T14:08:19.309Z,25.73
2019-02-25T14:13:22.307Z,25.40
2019-02-25T14:18:23.983Z,26.97
2019-02-25T14:23:26.868Z,27.03
2019-02-25T14:28:30.067Z,26.77
2019-02-25T14:33:35.516Z,26.63
2019-02-25T14:38:37.215Z,30.27
2019-02-25T14:43:46.203Z,23.50
2019-02-25T14:48:42.629Z,28.13
2019-02-25T14:53:45.192Z,31.10
2019-02-25T14:58:47.950Z,26.83
2019-02-25T15:03:49.636Z,27.60
2019-02-25T15:08:51.307Z,31.70
2019-02-25T15:13:52.982Z,35.13
2019-02-25T15:18:54.717Z,34.27
2019-02-25T15:24:00.207Z,39.53
2019-02-25T15:29:00.709Z,35.40
2019-02-25T15:34:03.525Z,38.00
2019-02-25T15:39:06.642Z,36.27
2019-02-25T15:44:08.978Z,32.73
2019-02-25T15:49:13.015Z,24.03
2019-02-25T15:54:14.768Z,36.70
2019-02-25T15:59:16.509Z,36.40
2019-02-25T16:04:18.593Z,37.67
2019-02-25T16:09:23.767Z,35.87
2019-02-25T16:14:25.517Z,39.43
2019-02-25T16:19:38.807Z,38.67
2019-02-25T16:24:30.917Z,34.37
2019-02-25T16:29:32.617Z,39.50
2019-02-25T16:34:35.801Z,38.37
2019-02-25T16:39:37.865Z,37.03
2019-02-25T16:44:39.557Z,38.93
2019-02-25T16:49:41.297Z,39.90
2019-02-25T16:54:43.037Z,29.40
2019-02-25T16:59:44.793Z,38.77
2019-02-25T17:04:46.807Z,35.07
2019-02-25T17:09:48.529Z,30.10
2019-02-25T17:14:50.585Z,22.90
2019-02-25T17:19:54.100Z,31.40
2019-02-25T17:24:56.492Z,33.40
2019-02-25T17:29:59.868Z,39.10
2019-02-25T17:35:03.047Z,39.53
2019-02-25T17:40:06.385Z,40.10
2019-02-25T17:45:10.401Z,41.60
2019-02-25T17:50:12.504Z,41.53
2019-02-25T17:55:16.062Z,42.97
2019-02-25T18:00:25.922Z,41.50
2019-02-25T18:05:27.665Z,40.87
2019-02-25T18:10:31.325Z,37.63
2019-02-25T18:15:33.122Z,35.40
2019-02-25T18:20:36.678Z,35.37
2019-02-25T18:25:39.701Z,37.07
2019-02-25T18:30:42.066Z,35.37
2019-02-25T18:35:45.688Z,38.07
2019-02-25T18:40:47.680Z,37.50
2019-02-25T18:45:52.976Z,34.50
2019-02-25T18:50:57.209Z,33.90
2019-02-25T18:55:58.223Z,33.73
2019-02-25T19:01:00.002Z,37.77
2019-02-25T19:06:01.691Z,37.00
2019-02-25T19:11:03.674Z,36.03
2019-02-25T19:16:06.235Z,36.93
2019-02-25T19:21:09.230Z,36.30
2019-02-25T19:26:12.994Z,35.83
2019-02-25T19:31:15.157Z,33.97
2019-02-25T19:36:18.995Z,33.03
2019-02-25T19:41:22.412Z,37.93
2019-02-25T19:46:23.863Z,35.23
2019-02-25T19:51:27.437Z,37.60
2019-02-25T19:56:29.389Z,36.93
2019-02-25T20:01:31.137Z,34.97
2019-02-25T20:06:32.831Z,36.03
2019-02-25T20:11:34.673Z,36.83
2019-02-25T20:16:36.389Z,38.00
2019-02-25T20:21:38.167Z,40.07
2019-02-25T20:26:42.667Z,35.40
2019-02-25T20:31:47.451Z,34.33
2019-02-25T20:36:53.070Z,38.17
2019-02-25T20:41:56.511Z,38.57
2019-02-25T20:47:00.155Z,39.70
2019-02-25T20:52:01.748Z,40.90
2019-02-25T20:57:03.491Z,42.00
2019-02-25T21:02:09.661Z,41.20
2019-02-25T21:07:09.365Z,40.30
2019-02-25T21:12:20.203Z,42.00
2019-02-25T21:17:22.064Z,42.90
2019-02-25T21:22:27.134Z,42.67
2019-02-25T21:27:30.187Z,41.87
2019-02-25T21:32:36.191Z,36.03
2019-02-25T21:37:37.878Z,40.20
2019-02-25T21:42:43.675Z,40.90
2019-02-25T21:47:45.068Z,43.63
2019-02-25T21:52:47.974Z,40.37
2019-02-25T21:57:49.898Z,38.63
2019-02-25T22:02:52.716Z,45.90
2019-02-25T22:07:57.318Z,40.83
2019-02-25T22:12:58.414Z,44.23
2019-02-25T22:18:01.756Z,41.00
2019-02-25T22:23:05.672Z,41.50
2019-02-25T22:28:07.827Z,41.33
2019-02-25T22:33:25.095Z,39.57
2019-02-25T22:38:14.202Z,38.73
2019-02-25T22:43:16.495Z,43.87
2019-02-25T22:48:21.534Z,40.00
2019-02-25T22:53:22.965Z,37.57
2019-02-25T22:58:24.732Z,39.33
2019-02-25T23:03:27.672Z,37.47
2019-02-25T23:08:29.404Z,40.57
2019-02-25T23:13:31.994Z,42.07
2019-02-25T23:18:33.797Z,41.17
2019-02-25T23:23:37.473Z,39.50
2019-02-25T23:28:39.070Z,40.87
2019-02-25T23:33:42.307Z,41.77
2019-02-25T23:38:44.374Z,40.03
2019-02-25T23:43:48.326Z,42.67
2019-02-25T23:48:49.664Z,43.07
2019-02-25T23:53:53.579Z,38.77
2019-02-25T23:58:55.058Z,40.13
